메인 페이지
METAR-TAF:

METAR-TAF

공항 :

Tupelo Regional Airport (C.D. Lemons Field)

투펄로, 미시시피, 미국

위도: 34-16-05N, 경도: 088-46-12W, 고도: 106m

현재 날씨관측

예보는 12분 전, 08:53시(UTC)에 발표되었습니다.
북북서3kt
온도 25°C
습도 83%
기압 1009 hPa
시정: 16.1km
고도 2500ft 상공 구름 조금

METAR: KTUP 250853Z AUTO 33003KT 10SM FEW025 25/22 A2981 RMK AO2 LTG DSNT NE AND E SLP090 T02500217 55009

시각: 04:05 (09:05 UTC)

예보

예보는 3 시간 45분 전, 05:20시(UTC)에 발표되었습니다.
예보 대상 시간: 25일 06시부터 26일 06시까지 (UTC)
남남동3kt
시정: 10km
고도 4000ft 상공 구름 보통
고도 25000ft 상공 구름 많음
25일 0900시부터 (UTC)
5kt
시정: 10km
고도 2500ft 상공 구름 보통
고도 5000ft 상공 구름 많음
약한소나기
25일 1400시부터 (UTC)
남남서6kt
시정: 10km
고도 4500ft 상공 구름 많음
확률 30%
25일 22시부터 26일 01시까지 (UTC)
시정: 6.4km
고도 3000ft 상공 구름 많음, 적란운.
뇌우, 약한비
26일 0100시부터 (UTC)
남남동3kt
시정: 10km
고도 20000ft 상공 구름 많음

TAF: KTUP 250520Z 2506/2606 16003KT P6SM SCT040 BKN250 FM250900 17005KT P6SM -SHRA SCT025 BKN050 FM251400 21006KT P6SM BKN045 PROB30 2522/2601 4SM -TSRA BKN030CB FM260100 16003KT P6SM BKN200

4,000개 이상의 공항 관측 자료 및 예보 (METAR 및 TAF 보고).

지도상에서 검색 가능한 기상관측소가 노란 점과 빨간 점으로 표시되어 있습니다.

기상관측소 명을 보려면 표시 위로 마우스를 이동하세요.

날씨 관측과 예보를 보려면 클릭하세요.

지도 변경 : 확대하려면 엑스 표시가 있는 녹색 버튼, 축소하려면 빼기 표시가 있는 녹색 버튼, 다음 페이지의 지도를 보려면 녹색 화살표를 클릭하세요.


METAR-TAF: